Terminal Aerodrome Forecast
Issued by NWS Omaha/Valley, NE

Home | Current Version | Previous Version | Graphics & Text | Print | Product List | Glossary On
Versions: 1 2 3 4 5 6 7 8 9 10 11 12 13 14 15 16 17
000
FTUS43 KOAX 090305 AAA
TAFOFK
TAF AMD
KOFK 090305Z 0903/0924 30013KT P6SM BKN250
     FM090600 32013G21KT P6SM FEW100 BKN250
     FM090900 33013KT P6SM SCT020 BKN250
      TEMPO 0911/0914 BKN020
     FM091600 33010KT P6SM SCT080
     FM092100 29009KT P6SM SCT250=

USA.gov is the U.S. government's official web portal to all federal, state and local government web resources and services.